sensor_id;sensor_type;location;lat;lon;timestamp;P1;durP1;ratioP1;P2;durP2;ratioP2
52015;SDS011;38032;53.326;6.472;2022-08-21T00:01:25;10.77;;;4.95;;
52015;SDS011;38032;53.326;6.472;2022-08-21T00:03:52;9.68;;;4.72;;
52015;SDS011;38032;53.326;6.472;2022-08-21T00:06:18;9.55;;;5.15;;
52015;SDS011;38032;53.326;6.472;2022-08-21T00:08:44;10.70;;;5.18;;
52015;SDS011;38032;53.326;6.472;2022-08-21T00:11:10;9.95;;;5.20;;
52015;SDS011;38032;53.326;6.472;2022-08-21T00:13:36;8.35;;;5.22;;
52015;SDS011;38032;53.326;6.472;2022-08-21T00:16:02;9.30;;;5.63;;
52015;SDS011;38032;53.326;6.472;2022-08-21T00:18:29;9.95;;;5.82;;
52015;SDS011;38032;53.326;6.472;2022-08-21T00:20:55;9.50;;;5.30;;
52015;SDS011;38032;53.326;6.472;2022-08-21T00:23:21;13.00;;;5.88;;
52015;SDS011;38032;53.326;6.472;2022-08-21T00:25:47;10.07;;;5.30;;
52015;SDS011;38032;53.326;6.472;2022-08-21T00:28:13;9.23;;;5.45;;
52015;SDS011;38032;53.326;6.472;2022-08-21T00:30:39;9.75;;;5.55;;
52015;SDS011;38032;53.326;6.472;2022-08-21T00:33:05;11.07;;;5.50;;
52015;SDS011;38032;53.326;6.472;2022-08-21T00:35:33;10.60;;;5.80;;
52015;SDS011;38032;53.326;6.472;2022-08-21T00:38:02;9.80;;;5.70;;
52015;SDS011;38032;53.326;6.472;2022-08-21T00:40:37;7.55;;;5.53;;
52015;SDS011;38032;53.326;6.472;2022-08-21T00:43:08;13.10;;;6.10;;
52015;SDS011;38032;53.326;6.472;2022-08-21T00:45:35;13.73;;;6.10;;
52015;SDS011;38032;53.326;6.472;2022-08-21T00:48:02;11.45;;;5.72;;
52015;SDS011;38032;53.326;6.472;2022-08-21T00:50:28;11.23;;;5.80;;
52015;SDS011;38032;53.326;6.472;2022-08-21T00:52:58;15.60;;;6.20;;
52015;SDS011;38032;53.326;6.472;2022-08-21T00:55:26;10.98;;;6.28;;
52015;SDS011;38032;53.326;6.472;2022-08-21T00:57:53;9.60;;;5.70;;
52015;SDS011;38032;53.326;6.472;2022-08-21T01:00:24;9.27;;;6.03;;
52015;SDS011;38032;53.326;6.472;2022-08-21T01:02:54;10.02;;;6.57;;
52015;SDS011;38032;53.326;6.472;2022-08-21T01:05:21;10.00;;;6.10;;
52015;SDS011;38032;53.326;6.472;2022-08-21T01:07:47;9.70;;;6.68;;
52015;SDS011;38032;53.326;6.472;2022-08-21T01:10:12;13.80;;;6.70;;
52015;SDS011;38032;53.326;6.472;2022-08-21T01:12:40;9.88;;;5.93;;
52015;SDS011;38032;53.326;6.472;2022-08-21T01:15:06;10.10;;;6.00;;
52015;SDS011;38032;53.326;6.472;2022-08-21T01:17:35;11.07;;;6.53;;
52015;SDS011;38032;53.326;6.472;2022-08-21T01:20:04;11.73;;;6.22;;
52015;SDS011;38032;53.326;6.472;2022-08-21T01:22:32;10.07;;;6.00;;
52015;SDS011;38032;53.326;6.472;2022-08-21T01:24:58;10.80;;;6.13;;
52015;SDS011;38032;53.326;6.472;2022-08-21T01:27:23;11.30;;;6.50;;
52015;SDS011;38032;53.326;6.472;2022-08-21T01:29:51;9.57;;;6.30;;
52015;SDS011;38032;53.326;6.472;2022-08-21T01:32:21;8.45;;;5.90;;
52015;SDS011;38032;53.326;6.472;2022-08-21T01:34:49;8.82;;;6.70;;
52015;SDS011;38032;53.326;6.472;2022-08-21T01:37:16;12.13;;;6.40;;
52015;SDS011;38032;53.326;6.472;2022-08-21T01:39:42;12.30;;;6.60;;
52015;SDS011;38032;53.326;6.472;2022-08-21T01:42:09;11.48;;;6.28;;
52015;SDS011;38032;53.326;6.472;2022-08-21T01:44:35;11.13;;;6.20;;
52015;SDS011;38032;53.326;6.472;2022-08-21T01:47:02;12.35;;;6.63;;
52015;SDS011;38032;53.326;6.472;2022-08-21T01:49:31;13.25;;;6.05;;
52015;SDS011;38032;53.326;6.472;2022-08-21T01:51:57;12.05;;;6.53;;
52015;SDS011;38032;53.326;6.472;2022-08-21T01:54:22;10.70;;;6.50;;
52015;SDS011;38032;53.326;6.472;2022-08-21T01:56:50;10.52;;;6.55;;
52015;SDS011;38032;53.326;6.472;2022-08-21T01:59:18;9.50;;;6.50;;
52015;SDS011;38032;53.326;6.472;2022-08-21T02:01:45;10.43;;;6.53;;
52015;SDS011;38032;53.326;6.472;2022-08-21T02:04:10;14.95;;;6.88;;
52015;SDS011;38032;53.326;6.472;2022-08-21T02:06:36;11.63;;;6.45;;
52015;SDS011;38032;53.326;6.472;2022-08-21T02:09:04;9.35;;;6.43;;
52015;SDS011;38032;53.326;6.472;2022-08-21T02:11:31;8.93;;;6.63;;
52015;SDS011;38032;53.326;6.472;2022-08-21T02:13:57;11.95;;;6.72;;
52015;SDS011;38032;53.326;6.472;2022-08-21T02:16:23;14.68;;;6.55;;
52015;SDS011;38032;53.326;6.472;2022-08-21T02:18:49;11.60;;;6.38;;
52015;SDS011;38032;53.326;6.472;2022-08-21T02:21:14;8.50;;;6.15;;
52015;SDS011;38032;53.326;6.472;2022-08-21T02:23:40;13.18;;;6.57;;
52015;SDS011;38032;53.326;6.472;2022-08-21T02:26:07;11.15;;;6.68;;
52015;SDS011;38032;53.326;6.472;2022-08-21T02:28:34;7.78;;;6.13;;
52015;SDS011;38032;53.326;6.472;2022-08-21T02:31:01;11.85;;;7.20;;
52015;SDS011;38032;53.326;6.472;2022-08-21T02:33:28;11.40;;;6.93;;
52015;SDS011;38032;53.326;6.472;2022-08-21T02:35:55;11.95;;;6.95;;
52015;SDS011;38032;53.326;6.472;2022-08-21T02:38:23;12.73;;;7.35;;
52015;SDS011;38032;53.326;6.472;2022-08-21T02:40:51;12.65;;;7.10;;
52015;SDS011;38032;53.326;6.472;2022-08-21T02:43:19;14.18;;;6.88;;
52015;SDS011;38032;53.326;6.472;2022-08-21T02:45:46;10.48;;;7.15;;
52015;SDS011;38032;53.326;6.472;2022-08-21T02:48:14;12.13;;;7.40;;
52015;SDS011;38032;53.326;6.472;2022-08-21T02:50:45;12.77;;;7.20;;
52015;SDS011;38032;53.326;6.472;2022-08-21T02:53:14;10.85;;;6.53;;
52015;SDS011;38032;53.326;6.472;2022-08-21T02:55:42;11.95;;;7.15;;
52015;SDS011;38032;53.326;6.472;2022-08-21T02:58:09;13.40;;;7.78;;
52015;SDS011;38032;53.326;6.472;2022-08-21T03:00:36;13.00;;;7.35;;
52015;SDS011;38032;53.326;6.472;2022-08-21T03:03:03;13.20;;;7.55;;
52015;SDS011;38032;53.326;6.472;2022-08-21T03:05:29;12.20;;;7.30;;
52015;SDS011;38032;53.326;6.472;2022-08-21T03:07:57;10.60;;;7.13;;
52015;SDS011;38032;53.326;6.472;2022-08-21T03:10:24;11.82;;;7.20;;
52015;SDS011;38032;53.326;6.472;2022-08-21T03:12:50;13.75;;;7.80;;
52015;SDS011;38032;53.326;6.472;2022-08-21T03:15:18;12.05;;;7.93;;
52015;SDS011;38032;53.326;6.472;2022-08-21T03:17:46;11.30;;;8.00;;
52015;SDS011;38032;53.326;6.472;2022-08-21T03:20:13;11.50;;;7.55;;
52015;SDS011;38032;53.326;6.472;2022-08-21T03:22:41;12.15;;;8.15;;
52015;SDS011;38032;53.326;6.472;2022-08-21T03:25:07;15.25;;;8.32;;
52015;SDS011;38032;53.326;6.472;2022-08-21T03:27:33;13.15;;;7.25;;
52015;SDS011;38032;53.326;6.472;2022-08-21T03:30:00;14.50;;;8.45;;
52015;SDS011;38032;53.326;6.472;2022-08-21T03:32:26;13.85;;;8.43;;
52015;SDS011;38032;53.326;6.472;2022-08-21T03:34:52;12.50;;;7.30;;
52015;SDS011;38032;53.326;6.472;2022-08-21T03:37:18;15.57;;;8.68;;
52015;SDS011;38032;53.326;6.472;2022-08-21T03:39:44;13.13;;;8.02;;
52015;SDS011;38032;53.326;6.472;2022-08-21T03:42:10;13.70;;;8.40;;
52015;SDS011;38032;53.326;6.472;2022-08-21T03:44:36;13.32;;;7.68;;
52015;SDS011;38032;53.326;6.472;2022-08-21T03:47:04;15.63;;;8.60;;
52015;SDS011;38032;53.326;6.472;2022-08-21T03:49:30;14.43;;;8.00;;
52015;SDS011;38032;53.326;6.472;2022-08-21T03:51:56;11.93;;;8.25;;
52015;SDS011;38032;53.326;6.472;2022-08-21T03:54:22;11.25;;;7.57;;
52015;SDS011;38032;53.326;6.472;2022-08-21T03:56:48;13.10;;;8.48;;
52015;SDS011;38032;53.326;6.472;2022-08-21T03:59:14;15.80;;;8.40;;
52015;SDS011;38032;53.326;6.472;2022-08-21T04:01:40;13.40;;;8.85;;
52015;SDS011;38032;53.326;6.472;2022-08-21T04:04:23;13.63;;;8.52;;
52015;SDS011;38032;53.326;6.472;2022-08-21T04:06:50;17.20;;;8.65;;
52015;SDS011;38032;53.326;6.472;2022-08-21T04:09:16;12.20;;;8.25;;
52015;SDS011;38032;53.326;6.472;2022-08-21T04:11:43;16.33;;;9.15;;
52015;SDS011;38032;53.326;6.472;2022-08-21T04:14:10;12.90;;;8.48;;
52015;SDS011;38032;53.326;6.472;2022-08-21T04:16:36;15.80;;;9.05;;
52015;SDS011;38032;53.326;6.472;2022-08-21T04:19:01;14.10;;;8.38;;
52015;SDS011;38032;53.326;6.472;2022-08-21T04:21:27;12.52;;;8.50;;
52015;SDS011;38032;53.326;6.472;2022-08-21T04:23:54;13.02;;;8.25;;
52015;SDS011;38032;53.326;6.472;2022-08-21T04:26:20;13.32;;;8.63;;
52015;SDS011;38032;53.326;6.472;2022-08-21T04:28:46;12.82;;;8.73;;
52015;SDS011;38032;53.326;6.472;2022-08-21T04:31:12;14.77;;;9.10;;
52015;SDS011;38032;53.326;6.472;2022-08-21T04:33:37;11.00;;;8.30;;
52015;SDS011;38032;53.326;6.472;2022-08-21T04:36:03;14.95;;;9.05;;
52015;SDS011;38032;53.326;6.472;2022-08-21T04:38:30;14.13;;;8.93;;
52015;SDS011;38032;53.326;6.472;2022-08-21T04:40:56;15.43;;;8.50;;
52015;SDS011;38032;53.326;6.472;2022-08-21T04:43:22;15.20;;;8.15;;
52015;SDS011;38032;53.326;6.472;2022-08-21T04:45:48;13.00;;;8.25;;
52015;SDS011;38032;53.326;6.472;2022-08-21T04:48:17;14.10;;;8.13;;
52015;SDS011;38032;53.326;6.472;2022-08-21T04:50:49;12.57;;;8.18;;
52015;SDS011;38032;53.326;6.472;2022-08-21T04:53:44;13.70;;;8.50;;
52015;SDS011;38032;53.326;6.472;2022-08-21T04:56:18;9.70;;;7.85;;
52015;SDS011;38032;53.326;6.472;2022-08-21T04:58:47;11.65;;;7.95;;
52015;SDS011;38032;53.326;6.472;2022-08-21T05:01:17;11.15;;;7.97;;
52015;SDS011;38032;53.326;6.472;2022-08-21T05:03:46;11.63;;;8.00;;
52015;SDS011;38032;53.326;6.472;2022-08-21T05:06:15;11.27;;;7.80;;
52015;SDS011;38032;53.326;6.472;2022-08-21T05:08:42;12.40;;;8.07;;
52015;SDS011;38032;53.326;6.472;2022-08-21T05:11:10;11.60;;;7.82;;
52015;SDS011;38032;53.326;6.472;2022-08-21T05:13:36;11.68;;;7.68;;
52015;SDS011;38032;53.326;6.472;2022-08-21T05:16:02;14.30;;;7.97;;
52015;SDS011;38032;53.326;6.472;2022-08-21T05:18:28;12.50;;;7.68;;
52015;SDS011;38032;53.326;6.472;2022-08-21T05:20:54;14.90;;;8.05;;
52015;SDS011;38032;53.326;6.472;2022-08-21T05:23:20;15.27;;;8.20;;
52015;SDS011;38032;53.326;6.472;2022-08-21T05:25:46;13.90;;;7.93;;
52015;SDS011;38032;53.326;6.472;2022-08-21T05:28:11;11.43;;;7.50;;
52015;SDS011;38032;53.326;6.472;2022-08-21T05:30:37;15.30;;;8.05;;
52015;SDS011;38032;53.326;6.472;2022-08-21T05:33:05;12.77;;;8.10;;
52015;SDS011;38032;53.326;6.472;2022-08-21T05:35:32;17.42;;;7.82;;
52015;SDS011;38032;53.326;6.472;2022-08-21T05:37:59;14.30;;;8.05;;
52015;SDS011;38032;53.326;6.472;2022-08-21T05:40:25;18.88;;;7.85;;
52015;SDS011;38032;53.326;6.472;2022-08-21T05:42:53;11.45;;;6.82;;
52015;SDS011;38032;53.326;6.472;2022-08-21T05:45:19;14.63;;;8.90;;
52015;SDS011;38032;53.326;6.472;2022-08-21T05:47:46;14.65;;;8.25;;
52015;SDS011;38032;53.326;6.472;2022-08-21T05:50:12;12.77;;;7.78;;
52015;SDS011;38032;53.326;6.472;2022-08-21T05:52:39;16.65;;;8.63;;
52015;SDS011;38032;53.326;6.472;2022-08-21T05:55:04;13.10;;;8.02;;
52015;SDS011;38032;53.326;6.472;2022-08-21T05:57:30;12.10;;;7.85;;
52015;SDS011;38032;53.326;6.472;2022-08-21T05:59:56;15.80;;;8.00;;
52015;SDS011;38032;53.326;6.472;2022-08-21T06:02:22;14.07;;;7.90;;
52015;SDS011;38032;53.326;6.472;2022-08-21T06:04:48;12.68;;;7.47;;
52015;SDS011;38032;53.326;6.472;2022-08-21T06:07:14;14.07;;;6.88;;
52015;SDS011;38032;53.326;6.472;2022-08-21T06:09:40;15.90;;;7.10;;
52015;SDS011;38032;53.326;6.472;2022-08-21T06:12:07;11.52;;;6.68;;
52015;SDS011;38032;53.326;6.472;2022-08-21T06:14:35;11.63;;;6.60;;
52015;SDS011;38032;53.326;6.472;2022-08-21T06:17:03;16.77;;;7.07;;
52015;SDS011;38032;53.326;6.472;2022-08-21T06:19:31;12.30;;;6.85;;
52015;SDS011;38032;53.326;6.472;2022-08-21T06:21:57;9.90;;;6.80;;
52015;SDS011;38032;53.326;6.472;2022-08-21T06:24:23;12.70;;;6.93;;
52015;SDS011;38032;53.326;6.472;2022-08-21T06:26:50;12.02;;;7.00;;
52015;SDS011;38032;53.326;6.472;2022-08-21T06:29:15;12.43;;;5.95;;
52015;SDS011;38032;53.326;6.472;2022-08-21T06:31:43;12.40;;;6.70;;
52015;SDS011;38032;53.326;6.472;2022-08-21T06:34:09;14.38;;;6.65;;
52015;SDS011;38032;53.326;6.472;2022-08-21T06:36:36;13.52;;;6.40;;
52015;SDS011;38032;53.326;6.472;2022-08-21T06:39:02;14.13;;;6.50;;
52015;SDS011;38032;53.326;6.472;2022-08-21T06:41:28;12.48;;;6.47;;
52015;SDS011;38032;53.326;6.472;2022-08-21T06:43:54;9.15;;;6.05;;
52015;SDS011;38032;53.326;6.472;2022-08-21T06:46:21;14.75;;;7.15;;
52015;SDS011;38032;53.326;6.472;2022-08-21T06:48:48;12.90;;;6.95;;
52015;SDS011;38032;53.326;6.472;2022-08-21T06:51:14;13.88;;;7.35;;
52015;SDS011;38032;53.326;6.472;2022-08-21T06:53:40;13.52;;;7.18;;
52015;SDS011;38032;53.326;6.472;2022-08-21T06:56:06;14.65;;;6.20;;
52015;SDS011;38032;53.326;6.472;2022-08-21T06:58:31;11.40;;;6.43;;
52015;SDS011;38032;53.326;6.472;2022-08-21T07:00:57;10.02;;;5.68;;
52015;SDS011;38032;53.326;6.472;2022-08-21T07:03:24;11.55;;;6.65;;
52015;SDS011;38032;53.326;6.472;2022-08-21T07:05:53;12.27;;;5.78;;
52015;SDS011;38032;53.326;6.472;2022-08-21T07:08:20;9.68;;;5.78;;
52015;SDS011;38032;53.326;6.472;2022-08-21T07:10:47;16.30;;;7.13;;
52015;SDS011;38032;53.326;6.472;2022-08-21T07:13:13;12.13;;;6.00;;
52015;SDS011;38032;53.326;6.472;2022-08-21T07:15:40;11.77;;;5.93;;
52015;SDS011;38032;53.326;6.472;2022-08-21T07:18:06;14.57;;;5.60;;
52015;SDS011;38032;53.326;6.472;2022-08-21T07:20:32;9.82;;;5.35;;
52015;SDS011;38032;53.326;6.472;2022-08-21T07:22:59;10.70;;;5.28;;
52015;SDS011;38032;53.326;6.472;2022-08-21T07:25:28;13.68;;;5.63;;
52015;SDS011;38032;53.326;6.472;2022-08-21T07:27:54;10.95;;;5.25;;
52015;SDS011;38032;53.326;6.472;2022-08-21T07:30:20;7.88;;;4.28;;
52015;SDS011;38032;53.326;6.472;2022-08-21T07:32:47;11.30;;;3.95;;
52015;SDS011;38032;53.326;6.472;2022-08-21T07:35:14;9.07;;;4.00;;
52015;SDS011;38032;53.326;6.472;2022-08-21T07:37:41;9.98;;;3.85;;
52015;SDS011;38032;53.326;6.472;2022-08-21T07:40:07;9.02;;;3.70;;
52015;SDS011;38032;53.326;6.472;2022-08-21T07:42:33;7.18;;;3.20;;
52015;SDS011;38032;53.326;6.472;2022-08-21T07:44:59;9.90;;;3.92;;
52015;SDS011;38032;53.326;6.472;2022-08-21T07:47:25;7.55;;;3.20;;
52015;SDS011;38032;53.326;6.472;2022-08-21T07:49:50;11.10;;;3.63;;
52015;SDS011;38032;53.326;6.472;2022-08-21T07:52:16;11.07;;;3.38;;
52015;SDS011;38032;53.326;6.472;2022-08-21T07:54:42;6.82;;;3.10;;
52015;SDS011;38032;53.326;6.472;2022-08-21T07:57:08;9.68;;;3.78;;
52015;SDS011;38032;53.326;6.472;2022-08-21T07:59:34;8.95;;;3.05;;
52015;SDS011;38032;53.326;6.472;2022-08-21T08:01:59;7.38;;;3.13;;
52015;SDS011;38032;53.326;6.472;2022-08-21T08:04:25;7.93;;;2.95;;
52015;SDS011;38032;53.326;6.472;2022-08-21T08:06:51;10.55;;;3.47;;
52015;SDS011;38032;53.326;6.472;2022-08-21T08:09:16;8.95;;;3.25;;
52015;SDS011;38032;53.326;6.472;2022-08-21T08:11:42;7.53;;;3.17;;
52015;SDS011;38032;53.326;6.472;2022-08-21T08:14:09;10.00;;;3.20;;
52015;SDS011;38032;53.326;6.472;2022-08-21T08:16:35;8.90;;;3.40;;
52015;SDS011;38032;53.326;6.472;2022-08-21T08:19:00;9.10;;;3.50;;
52015;SDS011;38032;53.326;6.472;2022-08-21T08:21:26;8.65;;;3.30;;
52015;SDS011;38032;53.326;6.472;2022-08-21T08:23:52;8.23;;;3.40;;
52015;SDS011;38032;53.326;6.472;2022-08-21T08:26:18;7.22;;;3.22;;
52015;SDS011;38032;53.326;6.472;2022-08-21T08:28:44;7.28;;;3.10;;
52015;SDS011;38032;53.326;6.472;2022-08-21T08:31:12;13.25;;;4.63;;
52015;SDS011;38032;53.326;6.472;2022-08-21T08:33:38;6.68;;;3.45;;
52015;SDS011;38032;53.326;6.472;2022-08-21T08:36:04;9.50;;;3.58;;
52015;SDS011;38032;53.326;6.472;2022-08-21T08:38:30;11.55;;;3.42;;
52015;SDS011;38032;53.326;6.472;2022-08-21T08:41:06;12.32;;;3.30;;
52015;SDS011;38032;53.326;6.472;2022-08-21T08:43:38;9.65;;;3.28;;
52015;SDS011;38032;53.326;6.472;2022-08-21T08:46:10;8.35;;;3.38;;
52015;SDS011;38032;53.326;6.472;2022-08-21T08:48:51;7.40;;;3.20;;
52015;SDS011;38032;53.326;6.472;2022-08-21T08:51:23;10.23;;;3.47;;
52015;SDS011;38032;53.326;6.472;2022-08-21T08:53:58;11.35;;;3.40;;
52015;SDS011;38032;53.326;6.472;2022-08-21T08:56:29;9.18;;;2.85;;
52015;SDS011;38032;53.326;6.472;2022-08-21T08:58:59;11.10;;;3.60;;
52015;SDS011;38032;53.326;6.472;2022-08-21T09:01:32;9.10;;;3.20;;
52015;SDS011;38032;53.326;6.472;2022-08-21T09:03:58;8.95;;;3.28;;
52015;SDS011;38032;53.326;6.472;2022-08-21T09:06:34;8.18;;;3.17;;
52015;SDS011;38032;53.326;6.472;2022-08-21T09:14:54;8.07;;;3.08;;
52015;SDS011;38032;53.326;6.472;2022-08-21T09:17:34;10.33;;;3.30;;
52015;SDS011;38032;53.326;6.472;2022-08-21T09:20:14;7.95;;;3.15;;
52015;SDS011;38032;53.326;6.472;2022-08-21T09:22:53;9.65;;;3.22;;
52015;SDS011;38032;53.326;6.472;2022-08-21T09:25:27;7.70;;;2.90;;
52015;SDS011;38032;53.326;6.472;2022-08-21T09:27:57;8.18;;;3.03;;
52015;SDS011;38032;53.326;6.472;2022-08-21T09:30:25;7.15;;;2.95;;
52015;SDS011;38032;53.326;6.472;2022-08-21T09:32:54;9.73;;;3.10;;
52015;SDS011;38032;53.326;6.472;2022-08-21T09:35:20;8.88;;;3.10;;
52015;SDS011;38032;53.326;6.472;2022-08-21T09:40:31;8.85;;;3.28;;
52015;SDS011;38032;53.326;6.472;2022-08-21T09:43:03;7.93;;;2.47;;
52015;SDS011;38032;53.326;6.472;2022-08-21T09:45:32;6.90;;;2.55;;
52015;SDS011;38032;53.326;6.472;2022-08-21T09:48:09;8.02;;;2.70;;
52015;SDS011;38032;53.326;6.472;2022-08-21T09:50:38;8.32;;;2.70;;
52015;SDS011;38032;53.326;6.472;2022-08-21T09:53:05;7.97;;;2.70;;
52015;SDS011;38032;53.326;6.472;2022-08-21T09:55:51;7.43;;;2.40;;
52015;SDS011;38032;53.326;6.472;2022-08-21T09:58:39;6.65;;;2.35;;
52015;SDS011;38032;53.326;6.472;2022-08-21T10:01:06;6.25;;;2.10;;
52015;SDS011;38032;53.326;6.472;2022-08-21T10:03:39;6.65;;;2.17;;
52015;SDS011;38032;53.326;6.472;2022-08-21T10:06:06;5.47;;;2.33;;
52015;SDS011;38032;53.326;6.472;2022-08-21T10:08:37;6.13;;;2.30;;
52015;SDS011;38032;53.326;6.472;2022-08-21T10:11:06;7.63;;;2.50;;
52015;SDS011;38032;53.326;6.472;2022-08-21T10:16:38;6.68;;;2.38;;
52015;SDS011;38032;53.326;6.472;2022-08-21T10:19:19;7.70;;;2.60;;
52015;SDS011;38032;53.326;6.472;2022-08-21T10:25:00;6.78;;;2.35;;
52015;SDS011;38032;53.326;6.472;2022-08-21T10:33:04;5.90;;;2.22;;
52015;SDS011;38032;53.326;6.472;2022-08-21T10:38:34;6.93;;;2.25;;
52015;SDS011;38032;53.326;6.472;2022-08-21T10:49:27;8.93;;;2.40;;
52015;SDS011;38032;53.326;6.472;2022-08-21T10:54:29;6.22;;;2.03;;
52015;SDS011;38032;53.326;6.472;2022-08-21T10:57:05;3.90;;;2.10;;
52015;SDS011;38032;53.326;6.472;2022-08-21T11:02:26;8.05;;;2.10;;
52015;SDS011;38032;53.326;6.472;2022-08-21T11:04:59;6.03;;;2.05;;
52015;SDS011;38032;53.326;6.472;2022-08-21T11:07:36;8.05;;;2.30;;
52015;SDS011;38032;53.326;6.472;2022-08-21T11:10:10;7.80;;;2.58;;
52015;SDS011;38032;53.326;6.472;2022-08-21T11:12:44;8.60;;;2.40;;
52015;SDS011;38032;53.326;6.472;2022-08-21T11:15:33;6.57;;;2.55;;
52015;SDS011;38032;53.326;6.472;2022-08-21T11:20:56;6.75;;;2.20;;
52015;SDS011;38032;53.326;6.472;2022-08-21T11:23:36;7.30;;;2.30;;
52015;SDS011;38032;53.326;6.472;2022-08-21T11:26:10;6.13;;;2.35;;
52015;SDS011;38032;53.326;6.472;2022-08-21T11:28:43;5.40;;;2.05;;
52015;SDS011;38032;53.326;6.472;2022-08-21T11:31:21;8.85;;;2.40;;
52015;SDS011;38032;53.326;6.472;2022-08-21T11:33:58;7.60;;;2.80;;
52015;SDS011;38032;53.326;6.472;2022-08-21T11:36:34;7.65;;;2.28;;
52015;SDS011;38032;53.326;6.472;2022-08-21T11:39:16;5.25;;;2.20;;
52015;SDS011;38032;53.326;6.472;2022-08-21T11:44:27;6.53;;;2.00;;
52015;SDS011;38032;53.326;6.472;2022-08-21T11:50:01;7.03;;;2.03;;
52015;SDS011;38032;53.326;6.472;2022-08-21T11:55:26;6.28;;;2.05;;
52015;SDS011;38032;53.326;6.472;2022-08-21T11:58:02;3.63;;;1.90;;
52015;SDS011;38032;53.326;6.472;2022-08-21T12:00:34;5.05;;;1.95;;
52015;SDS011;38032;53.326;6.472;2022-08-21T12:03:06;5.72;;;1.70;;
52015;SDS011;38032;53.326;6.472;2022-08-21T12:05:39;8.10;;;2.00;;
52015;SDS011;38032;53.326;6.472;2022-08-21T12:10:37;5.82;;;2.15;;
52015;SDS011;38032;53.326;6.472;2022-08-21T12:13:07;7.90;;;2.30;;
52015;SDS011;38032;53.326;6.472;2022-08-21T12:15:36;4.90;;;1.83;;
52015;SDS011;38032;53.326;6.472;2022-08-21T12:18:05;5.65;;;2.20;;
52015;SDS011;38032;53.326;6.472;2022-08-21T12:21:01;4.68;;;1.70;;
52015;SDS011;38032;53.326;6.472;2022-08-21T12:23:33;5.75;;;1.65;;
52015;SDS011;38032;53.326;6.472;2022-08-21T12:28:38;4.35;;;1.80;;
52015;SDS011;38032;53.326;6.472;2022-08-21T12:31:16;6.05;;;1.80;;
52015;SDS011;38032;53.326;6.472;2022-08-21T12:33:47;4.72;;;1.88;;
52015;SDS011;38032;53.326;6.472;2022-08-21T12:36:24;6.18;;;2.05;;
52015;SDS011;38032;53.326;6.472;2022-08-21T12:38:57;3.63;;;1.58;;
52015;SDS011;38032;53.326;6.472;2022-08-21T12:41:27;4.40;;;2.00;;
52015;SDS011;38032;53.326;6.472;2022-08-21T12:43:57;5.55;;;1.90;;
52015;SDS011;38032;53.326;6.472;2022-08-21T12:46:34;3.85;;;1.67;;
52015;SDS011;38032;53.326;6.472;2022-08-21T12:49:14;3.75;;;1.60;;
52015;SDS011;38032;53.326;6.472;2022-08-21T12:51:50;5.07;;;1.88;;
52015;SDS011;38032;53.326;6.472;2022-08-21T12:57:03;7.10;;;1.92;;
52015;SDS011;38032;53.326;6.472;2022-08-21T12:59:31;5.65;;;1.95;;
52015;SDS011;38032;53.326;6.472;2022-08-21T13:02:00;7.60;;;1.85;;
52015;SDS011;38032;53.326;6.472;2022-08-21T13:04:35;7.07;;;1.88;;
52015;SDS011;38032;53.326;6.472;2022-08-21T13:07:05;7.55;;;2.00;;
52015;SDS011;38032;53.326;6.472;2022-08-21T13:09:36;5.03;;;1.90;;
52015;SDS011;38032;53.326;6.472;2022-08-21T13:12:09;6.13;;;2.13;;
52015;SDS011;38032;53.326;6.472;2022-08-21T13:14:36;6.22;;;2.00;;
52015;SDS011;38032;53.326;6.472;2022-08-21T13:17:06;5.40;;;1.90;;
52015;SDS011;38032;53.326;6.472;2022-08-21T13:19:33;5.10;;;1.67;;
52015;SDS011;38032;53.326;6.472;2022-08-21T13:22:00;5.63;;;1.95;;
52015;SDS011;38032;53.326;6.472;2022-08-21T13:24:29;5.80;;;1.95;;
52015;SDS011;38032;53.326;6.472;2022-08-21T13:26:57;4.82;;;1.88;;
52015;SDS011;38032;53.326;6.472;2022-08-21T13:29:28;6.60;;;2.08;;
52015;SDS011;38032;53.326;6.472;2022-08-21T13:31:58;6.68;;;2.10;;
52015;SDS011;38032;53.326;6.472;2022-08-21T13:34:33;6.50;;;2.28;;
52015;SDS011;38032;53.326;6.472;2022-08-21T13:37:04;5.45;;;1.90;;
52015;SDS011;38032;53.326;6.472;2022-08-21T13:39:31;8.75;;;2.15;;
52015;SDS011;38032;53.326;6.472;2022-08-21T13:41:59;7.97;;;1.80;;
52015;SDS011;38032;53.326;6.472;2022-08-21T13:47:00;6.68;;;1.73;;
52015;SDS011;38032;53.326;6.472;2022-08-21T13:49:32;4.85;;;1.92;;
52015;SDS011;38032;53.326;6.472;2022-08-21T13:52:01;5.47;;;1.95;;
52015;SDS011;38032;53.326;6.472;2022-08-21T13:56:59;6.55;;;2.13;;
52015;SDS011;38032;53.326;6.472;2022-08-21T13:59:26;5.07;;;2.25;;
52015;SDS011;38032;53.326;6.472;2022-08-21T14:01:55;5.88;;;2.08;;
52015;SDS011;38032;53.326;6.472;2022-08-21T14:04:33;6.05;;;1.80;;
52015;SDS011;38032;53.326;6.472;2022-08-21T14:07:02;6.43;;;2.08;;
52015;SDS011;38032;53.326;6.472;2022-08-21T14:09:41;4.95;;;1.88;;
52015;SDS011;38032;53.326;6.472;2022-08-21T14:12:15;4.50;;;1.90;;
52015;SDS011;38032;53.326;6.472;2022-08-21T14:14:44;4.75;;;1.77;;
52015;SDS011;38032;53.326;6.472;2022-08-21T14:17:12;3.40;;;1.70;;
52015;SDS011;38032;53.326;6.472;2022-08-21T14:19:50;5.25;;;1.77;;
52015;SDS011;38032;53.326;6.472;2022-08-21T14:22:29;6.63;;;2.00;;
52015;SDS011;38032;53.326;6.472;2022-08-21T14:25:04;5.95;;;2.10;;
52015;SDS011;38032;53.326;6.472;2022-08-21T14:27:34;4.38;;;1.80;;
52015;SDS011;38032;53.326;6.472;2022-08-21T14:30:08;5.00;;;1.90;;
52015;SDS011;38032;53.326;6.472;2022-08-21T14:32:43;5.68;;;2.33;;
52015;SDS011;38032;53.326;6.472;2022-08-21T14:35:10;9.38;;;2.50;;
52015;SDS011;38032;53.326;6.472;2022-08-21T14:37:36;7.70;;;2.35;;
52015;SDS011;38032;53.326;6.472;2022-08-21T14:40:03;7.63;;;2.50;;
52015;SDS011;38032;53.326;6.472;2022-08-21T14:42:29;5.97;;;2.20;;
52015;SDS011;38032;53.326;6.472;2022-08-21T14:44:57;6.97;;;2.63;;
52015;SDS011;38032;53.326;6.472;2022-08-21T14:47:26;7.80;;;3.03;;
52015;SDS011;38032;53.326;6.472;2022-08-21T14:49:53;8.43;;;2.40;;
52015;SDS011;38032;53.326;6.472;2022-08-21T14:52:19;7.50;;;2.30;;
52015;SDS011;38032;53.326;6.472;2022-08-21T14:54:45;7.18;;;2.95;;
52015;SDS011;38032;53.326;6.472;2022-08-21T14:57:11;7.90;;;2.50;;
52015;SDS011;38032;53.326;6.472;2022-08-21T14:59:38;6.60;;;2.50;;
52015;SDS011;38032;53.326;6.472;2022-08-21T15:02:05;6.97;;;2.40;;
52015;SDS011;38032;53.326;6.472;2022-08-21T15:04:32;6.65;;;2.25;;
52015;SDS011;38032;53.326;6.472;2022-08-21T15:06:58;6.32;;;2.33;;
52015;SDS011;38032;53.326;6.472;2022-08-21T15:09:24;8.02;;;2.38;;
52015;SDS011;38032;53.326;6.472;2022-08-21T15:11:51;7.70;;;2.22;;
52015;SDS011;38032;53.326;6.472;2022-08-21T15:14:23;7.32;;;2.15;;
52015;SDS011;38032;53.326;6.472;2022-08-21T15:16:50;8.65;;;2.42;;
52015;SDS011;38032;53.326;6.472;2022-08-21T15:19:17;9.27;;;2.63;;
52015;SDS011;38032;53.326;6.472;2022-08-21T15:21:43;7.70;;;2.35;;
52015;SDS011;38032;53.326;6.472;2022-08-21T15:24:08;5.88;;;2.25;;
52015;SDS011;38032;53.326;6.472;2022-08-21T15:26:35;10.18;;;2.90;;
52015;SDS011;38032;53.326;6.472;2022-08-21T15:29:01;4.97;;;2.05;;
52015;SDS011;38032;53.326;6.472;2022-08-21T15:31:27;7.85;;;2.47;;
52015;SDS011;38032;53.326;6.472;2022-08-21T15:33:53;7.15;;;2.47;;
52015;SDS011;38032;53.326;6.472;2022-08-21T15:36:20;8.60;;;2.30;;
52015;SDS011;38032;53.326;6.472;2022-08-21T15:38:46;9.40;;;2.78;;
52015;SDS011;38032;53.326;6.472;2022-08-21T15:41:12;6.93;;;2.13;;
52015;SDS011;38032;53.326;6.472;2022-08-21T15:46:23;7.38;;;2.40;;
52015;SDS011;38032;53.326;6.472;2022-08-21T15:48:48;7.97;;;2.08;;
52015;SDS011;38032;53.326;6.472;2022-08-21T15:51:15;5.45;;;2.10;;
52015;SDS011;38032;53.326;6.472;2022-08-21T15:53:41;6.50;;;2.03;;